Time;durP1;ratioP1;P1;durP2;ratioP2;P2;SDS_P1;SDS_P2;PMS_P1;PMS_P2;Temp;Humidity;BMP_temperature;BMP_pressure;BME280_temperature;BME280_humidity;BME280_pressure;Samples;Min_cycle;Max_cycle;Signal;HPM_P1;HPM_P2
2023/04/17 00:02:10;0.00;0.00;0.62;0.00;0.00;0.62;2.20;1.97;;;24.40;23.60;;;;;;2262835;61;20562;-64
2023/04/17 00:04:57;0.00;0.00;0.62;0.00;0.00;0.62;2.10;1.87;;;24.40;23.60;;;;;;2259658;61;20369;-65
2023/04/17 00:07:42;0.00;0.00;0.62;0.00;0.00;0.62;2.00;1.80;;;24.40;23.60;;;;;;2263140;61;20871;-64
2023/04/17 00:10:27;0.00;0.00;0.62;0.00;0.00;0.62;1.90;1.70;;;24.40;23.60;;;;;;2263116;61;20396;-64
2023/04/17 00:13:12;0.00;0.00;0.62;0.00;0.00;0.62;2.07;1.83;;;24.40;23.60;;;;;;2263021;61;20365;-64
2023/04/17 00:15:56;0.00;0.00;0.62;0.00;0.00;0.62;2.27;2.03;;;24.30;23.50;;;;;;2263363;61;20554;-65
2023/04/17 00:18:41;0.00;0.00;0.62;0.00;0.00;0.62;1.90;1.70;;;24.40;23.60;;;;;;2263220;61;20389;-69
2023/04/17 00:21:28;0.00;0.00;0.62;0.00;0.00;0.62;2.10;1.90;;;24.40;23.60;;;;;;2262971;61;20672;-65
2023/04/17 00:24:13;0.00;0.00;0.62;0.00;0.00;0.62;2.80;2.20;;;24.30;23.50;;;;;;2263068;61;20369;-64
2023/04/17 00:26:58;0.00;0.00;0.62;0.00;0.00;0.62;2.20;1.97;;;24.30;23.50;;;;;;2262686;61;20368;-65
2023/04/17 00:29:42;0.00;0.00;0.62;0.00;0.00;0.62;3.50;2.17;;;24.30;23.50;;;;;;2262576;61;20384;-64
2023/04/17 00:32:27;0.00;0.00;0.62;0.00;0.00;0.62;2.10;1.90;;;24.40;23.60;;;;;;2263659;61;20393;-64
2023/04/17 00:35:12;0.00;0.00;0.62;0.00;0.00;0.62;2.30;2.00;;;24.30;23.50;;;;;;2259500;61;20368;-64
2023/04/17 00:37:59;0.00;0.00;0.62;0.00;0.00;0.62;2.47;2.10;;;24.30;23.50;;;;;;2263036;61;20385;-64
2023/04/17 00:40:44;0.00;0.00;0.62;0.00;0.00;0.62;2.20;2.00;;;24.30;23.50;;;;;;2259605;61;20483;-65
2023/04/17 00:43:29;0.00;0.00;0.62;0.00;0.00;0.62;2.20;1.93;;;24.30;23.50;;;;;;2263143;61;20408;-65
2023/04/17 00:46:15;0.00;0.00;0.62;0.00;0.00;0.62;1.97;1.77;;;24.30;23.60;;;;;;2260061;61;20392;-65
2023/04/17 00:49:00;0.00;0.00;0.62;0.00;0.00;0.62;2.10;1.80;;;24.30;23.50;;;;;;2259442;61;20412;-64
2023/04/17 00:51:45;0.00;0.00;0.62;0.00;0.00;0.62;2.40;2.20;;;24.30;23.60;;;;;;2259939;61;20400;-64
2023/04/17 00:54:31;0.00;0.00;0.62;0.00;0.00;0.62;2.20;2.00;;;24.30;23.50;;;;;;2263207;61;20360;-64
2023/04/17 00:57:16;0.00;0.00;0.62;0.00;0.00;0.62;2.40;2.00;;;24.30;24.00;;;;;;2262789;61;20393;-64
2023/04/17 01:00:02;0.00;0.00;0.62;0.00;0.00;0.62;2.60;2.30;;;24.30;23.50;;;;;;2262897;61;20368;-65
2023/04/17 01:02:47;0.00;0.00;0.62;0.00;0.00;0.62;2.40;1.90;;;24.30;23.50;;;;;;2263408;61;20385;-64
2023/04/17 01:05:34;0.00;0.00;0.62;0.00;0.00;0.62;1.90;1.70;;;24.30;23.50;;;;;;2262715;61;20419;-63
2023/04/17 01:08:19;0.00;0.00;0.62;0.00;0.00;0.62;2.23;1.80;;;24.30;23.50;;;;;;2263247;61;20397;-64
2023/04/17 01:11:06;0.00;0.00;0.62;0.00;0.00;0.62;2.50;2.10;;;24.30;23.50;;;;;;2259634;61;20499;-65
2023/04/17 01:13:51;0.00;0.00;0.62;0.00;0.00;0.62;2.47;1.93;;;24.30;23.50;;;;;;2259907;61;20407;-67
2023/04/17 01:16:37;0.00;0.00;0.62;0.00;0.00;0.62;2.43;1.97;;;24.30;23.50;;;;;;2259707;61;20364;-64
2023/04/17 01:19:23;0.00;0.00;0.62;0.00;0.00;0.62;2.00;1.70;;;24.30;23.50;;;;;;2258662;61;20380;-64
2023/04/17 01:22:08;0.00;0.00;0.62;0.00;0.00;0.62;2.57;1.90;;;24.30;23.50;;;;;;2259756;61;20393;-68
2023/04/17 01:24:54;0.00;0.00;0.62;0.00;0.00;0.62;2.73;1.90;;;24.30;23.60;;;;;;2263143;61;20357;-64
2023/04/17 01:27:43;0.00;0.00;0.62;0.00;0.00;0.62;3.00;2.10;;;24.30;23.50;;;;;;2283920;39;20388;31
2023/04/17 01:30:28;0.00;0.00;0.62;0.00;0.00;0.62;2.00;1.77;;;24.30;23.50;;;;;;2259849;61;20377;-63
2023/04/17 01:33:23;0.00;0.00;0.62;0.00;0.00;0.62;1.80;1.60;;;24.30;23.60;;;;;;2258292;61;20766;-63
2023/04/17 01:36:08;0.00;0.00;0.62;0.00;0.00;0.62;2.47;1.80;;;24.30;23.50;;;;;;2259111;61;20362;-63
2023/04/17 01:38:53;0.00;0.00;0.62;0.00;0.00;0.62;2.33;2.10;;;24.20;23.50;;;;;;2257124;61;20382;-64
2023/04/17 01:41:39;0.00;0.00;0.62;0.00;0.00;0.62;2.27;2.07;;;24.20;23.50;;;;;;2254371;61;20394;-63
2023/04/17 01:44:24;0.00;0.00;0.62;0.00;0.00;0.62;3.10;2.53;;;24.20;23.50;;;;;;2251562;61;20390;-64
2023/04/17 01:47:09;0.00;0.00;0.62;0.00;0.00;0.62;2.23;1.67;;;24.20;23.50;;;;;;2257424;61;20962;-63
2023/04/17 01:49:53;0.00;0.00;0.62;0.00;0.00;0.62;2.10;1.83;;;24.20;23.50;;;;;;2256648;61;20445;-63
2023/04/17 01:52:38;0.00;0.00;0.62;0.00;0.00;0.62;2.07;1.80;;;24.30;23.60;;;;;;2257195;61;20453;-64
2023/04/17 01:55:23;0.00;0.00;0.62;0.00;0.00;0.62;2.50;2.00;;;24.20;23.50;;;;;;2256956;61;20422;-63
2023/04/17 01:58:09;0.00;0.00;0.62;0.00;0.00;0.62;2.13;1.93;;;24.20;23.50;;;;;;2255345;61;20410;-63
2023/04/17 02:00:53;0.00;0.00;0.62;0.00;0.00;0.62;1.80;1.60;;;24.20;23.50;;;;;;2256848;61;20370;-64
2023/04/17 02:03:38;0.00;0.00;0.62;0.00;0.00;0.62;1.93;1.73;;;24.20;23.50;;;;;;2256562;61;20813;-63
2023/04/17 02:06:22;0.00;0.00;0.62;0.00;0.00;0.62;2.53;2.00;;;24.20;23.50;;;;;;2255048;61;20363;-63
2023/04/17 02:09:07;0.00;0.00;0.62;0.00;0.00;0.62;2.10;1.90;;;24.20;23.50;;;;;;2257204;61;20405;-63
2023/04/17 02:11:56;0.00;0.00;0.62;0.00;0.00;0.62;3.17;2.10;;;24.20;23.50;;;;;;2256817;61;20410;-63
2023/04/17 02:14:42;0.00;0.00;0.62;0.00;0.00;0.62;1.90;1.63;;;24.20;23.50;;;;;;2254707;61;20448;-63
2023/04/17 02:17:27;0.00;0.00;0.62;0.00;0.00;0.62;2.73;2.13;;;24.20;23.50;;;;;;2254782;61;20362;-65
2023/04/17 02:20:12;0.00;0.00;0.62;0.00;0.00;0.62;2.10;1.90;;;24.20;23.50;;;;;;2256982;61;20414;-64
2023/04/17 02:22:59;0.00;0.00;0.62;0.00;0.00;0.62;2.40;2.10;;;24.20;23.50;;;;;;2255169;61;20355;-63
2023/04/17 02:25:44;0.00;0.00;0.62;0.00;0.00;0.62;2.60;2.20;;;24.20;23.50;;;;;;2254877;61;20363;-64
2023/04/17 02:28:29;0.00;0.00;0.62;0.00;0.00;0.62;2.00;1.70;;;24.20;23.50;;;;;;2255162;61;20389;-66
2023/04/17 02:31:15;0.00;0.00;0.62;0.00;0.00;0.62;2.23;2.03;;;24.20;23.50;;;;;;2258039;61;20389;-61
2023/04/17 02:33:59;0.00;0.00;0.62;0.00;0.00;0.62;2.40;2.10;;;24.20;23.50;;;;;;2261085;61;20365;-65
2023/04/17 02:36:45;0.00;0.00;0.62;0.00;0.00;0.62;2.20;1.60;;;24.20;23.50;;;;;;2255818;61;20922;-66
2023/04/17 02:39:30;0.00;0.00;0.62;0.00;0.00;0.62;2.07;1.80;;;24.20;23.50;;;;;;2257846;61;20830;-64
2023/04/17 02:42:15;0.00;0.00;0.62;0.00;0.00;0.62;2.30;2.10;;;24.20;23.50;;;;;;2261084;61;20945;-64
2023/04/17 02:45:01;0.00;0.00;0.62;0.00;0.00;0.62;2.30;1.90;;;24.20;23.50;;;;;;2261518;61;20818;-64
2023/04/17 02:47:47;0.00;0.00;0.62;0.00;0.00;0.62;3.20;1.97;;;24.20;23.50;;;;;;2258461;61;20986;-64
2023/04/17 02:50:32;0.00;0.00;0.62;0.00;0.00;0.62;2.57;1.93;;;24.20;23.50;;;;;;2258070;61;20389;-64
2023/04/17 02:53:30;0.00;0.00;0.62;0.00;0.00;0.62;2.70;2.17;;;24.20;23.50;;;;;;2258557;61;20366;-64
2023/04/17 02:56:15;0.00;0.00;0.62;0.00;0.00;0.62;2.50;2.10;;;24.20;23.50;;;;;;2260645;61;20381;-63
2023/04/17 02:59:00;0.00;0.00;0.62;0.00;0.00;0.62;2.43;2.23;;;24.10;23.40;;;;;;2258481;61;20490;-64
2023/04/17 03:01:45;0.00;0.00;0.62;0.00;0.00;0.62;2.27;2.00;;;24.10;23.50;;;;;;2260797;61;20366;-64
2023/04/17 03:04:34;0.00;0.00;0.62;0.00;0.00;0.62;2.23;2.03;;;24.10;23.40;;;;;;2255297;61;20457;-64
2023/04/17 03:07:22;0.00;0.00;0.62;0.00;0.00;0.62;2.80;2.43;;;24.20;23.50;;;;;;2261163;61;20370;-64
2023/04/17 03:10:08;0.00;0.00;0.62;0.00;0.00;0.62;2.53;2.10;;;24.10;23.40;;;;;;2254707;61;20421;-64
2023/04/17 03:12:53;0.00;0.00;0.62;0.00;0.00;0.62;2.00;1.80;;;24.10;23.40;;;;;;2261058;61;20440;-64
2023/04/17 03:15:38;0.00;0.00;0.62;0.00;0.00;0.62;2.50;2.23;;;24.10;23.40;;;;;;2259159;61;20401;-64
2023/04/17 03:18:23;0.00;0.00;0.62;0.00;0.00;0.62;2.23;1.90;;;24.10;23.40;;;;;;2258054;61;20385;-64
2023/04/17 03:21:09;0.00;0.00;0.62;0.00;0.00;0.62;2.77;2.30;;;24.10;23.40;;;;;;2257859;61;20437;-64
2023/04/17 03:23:54;0.00;0.00;0.62;0.00;0.00;0.62;2.50;1.80;;;24.10;23.40;;;;;;2257949;61;20385;-63
2023/04/17 03:26:40;0.00;0.00;0.62;0.00;0.00;0.62;2.00;1.77;;;24.10;23.40;;;;;;2258471;61;20401;-64
2023/04/17 03:29:31;0.00;0.00;0.62;0.00;0.00;0.62;2.67;2.17;;;24.10;23.40;;;;;;2261098;61;20385;-63
2023/04/17 03:32:17;0.00;0.00;0.62;0.00;0.00;0.62;2.00;1.80;;;24.10;23.40;;;;;;2261127;61;20389;-64
2023/04/17 03:35:03;0.00;0.00;0.62;0.00;0.00;0.62;2.30;2.10;;;24.10;23.40;;;;;;2258330;61;20405;-63
2023/04/17 03:37:49;0.00;0.00;0.62;0.00;0.00;0.62;2.27;1.90;;;24.10;23.40;;;;;;2261295;61;20417;-64
2023/04/17 03:40:34;0.00;0.00;0.62;0.00;0.00;0.62;2.07;1.70;;;24.10;23.40;;;;;;2258235;61;20370;-66
2023/04/17 03:43:19;0.00;0.00;0.62;0.00;0.00;0.62;2.03;1.63;;;24.10;23.40;;;;;;2256137;61;20454;-63
2023/04/17 03:46:04;0.00;0.00;0.62;0.00;0.00;0.62;2.47;2.20;;;24.10;23.40;;;;;;2255590;61;20370;-64
2023/04/17 03:48:49;0.00;0.00;0.62;0.00;0.00;0.62;2.00;1.70;;;24.10;23.40;;;;;;2261583;61;20437;-64
2023/04/17 03:51:33;0.00;0.00;0.62;0.00;0.00;0.62;2.20;2.00;;;24.10;23.40;;;;;;2261547;61;20385;-64
2023/04/17 03:54:28;0.00;0.00;0.62;0.00;0.00;0.62;2.60;2.00;;;24.10;23.40;;;;;;2252866;61;20469;-64
2023/04/17 03:57:14;0.00;0.00;0.62;0.00;0.00;0.62;2.00;1.70;;;24.10;23.40;;;;;;2261296;61;20945;-64
2023/04/17 03:59:59;0.00;0.00;0.62;0.00;0.00;0.62;3.00;2.03;;;24.10;23.50;;;;;;2261322;61;20454;-68
2023/04/17 04:02:47;0.00;0.00;0.62;0.00;0.00;0.62;1.60;1.40;;;24.10;23.40;;;;;;2261134;61;20893;-64
2023/04/17 04:05:36;0.00;0.00;0.62;0.00;0.00;0.62;2.40;1.90;;;24.10;23.50;;;;;;2256181;61;20366;-63
2023/04/17 04:08:22;0.00;0.00;0.62;0.00;0.00;0.62;2.27;2.07;;;24.10;23.40;;;;;;2258158;61;20408;-63
2023/04/17 04:11:11;0.00;0.00;0.62;0.00;0.00;0.62;2.43;1.90;;;24.10;23.40;;;;;;2261366;61;20365;-63
2023/04/17 04:13:57;0.00;0.00;0.62;0.00;0.00;0.62;2.03;1.83;;;24.10;23.40;;;;;;2256174;61;20427;-64
2023/04/17 04:16:42;0.00;0.00;0.62;0.00;0.00;0.62;1.87;1.63;;;24.10;23.50;;;;;;2258673;61;20883;-65
2023/04/17 04:19:29;0.00;0.00;0.62;0.00;0.00;0.62;2.40;1.70;;;24.10;23.50;;;;;;2260605;61;20382;-64
2023/04/17 04:22:15;0.00;0.00;0.62;0.00;0.00;0.62;2.10;1.90;;;24.10;23.40;;;;;;2258841;61;20911;-64
2023/04/17 04:25:07;0.00;0.00;0.62;0.00;0.00;0.62;2.10;1.90;;;24.10;23.50;;;;;;2260896;61;20362;-64
2023/04/17 04:28:06;0.00;0.00;0.62;0.00;0.00;0.62;2.57;2.20;;;24.10;23.40;;;;;;2255767;61;20464;-64
2023/04/17 04:30:51;0.00;0.00;0.62;0.00;0.00;0.62;2.13;1.93;;;24.00;23.40;;;;;;2252538;61;20587;-64
2023/04/17 04:33:38;0.00;0.00;0.62;0.00;0.00;0.62;2.87;1.87;;;24.10;23.50;;;;;;2261554;61;20354;-64
2023/04/17 04:36:23;0.00;0.00;0.62;0.00;0.00;0.62;2.00;1.80;;;24.10;23.50;;;;;;2258472;61;20365;-64
2023/04/17 04:39:20;0.00;0.00;0.62;0.00;0.00;0.62;2.40;1.80;;;24.00;23.40;;;;;;2253763;61;20393;-64
2023/04/17 04:42:08;0.00;0.00;0.62;0.00;0.00;0.62;4.60;1.87;;;24.00;23.40;;;;;;2255106;61;20347;-64
2023/04/17 04:45:13;0.00;0.00;0.62;0.00;0.00;0.62;2.13;1.70;;;24.00;23.40;;;;;;2261309;61;20374;-64
2023/04/17 04:48:00;0.00;0.00;0.62;0.00;0.00;0.62;2.43;1.83;;;24.00;23.40;;;;;;2258412;61;20409;-64
2023/04/17 04:50:45;0.00;0.00;0.62;0.00;0.00;0.62;2.33;2.00;;;24.00;23.40;;;;;;2258676;61;20373;-66
2023/04/17 04:53:30;0.00;0.00;0.62;0.00;0.00;0.62;2.30;2.10;;;24.00;23.40;;;;;;2260729;61;20910;-64
2023/04/17 04:56:16;0.00;0.00;0.62;0.00;0.00;0.62;1.80;1.60;;;24.00;23.40;;;;;;2261002;61;20358;-63
2023/04/17 04:59:03;0.00;0.00;0.62;0.00;0.00;0.62;2.73;2.30;;;24.00;23.40;;;;;;2258132;61;20386;-64
2023/04/17 05:01:52;0.00;0.00;0.62;0.00;0.00;0.62;2.40;2.20;;;24.00;23.40;;;;;;2260678;61;20362;-64
2023/04/17 05:04:40;0.00;0.00;0.62;0.00;0.00;0.62;2.40;2.07;;;24.00;23.40;;;;;;2255724;61;20466;-64
2023/04/17 05:07:26;0.00;0.00;0.62;0.00;0.00;0.62;2.07;1.83;;;24.00;23.40;;;;;;2260807;61;20454;-64
2023/04/17 05:10:11;0.00;0.00;0.62;0.00;0.00;0.62;1.90;1.70;;;24.00;23.40;;;;;;2260374;61;20370;-62
2023/04/17 05:13:01;0.00;0.00;0.62;0.00;0.00;0.62;2.70;2.00;;;24.00;23.40;;;;;;2261234;61;20847;-64
2023/04/17 05:15:46;0.00;0.00;0.62;0.00;0.00;0.62;2.13;1.93;;;24.00;23.40;;;;;;2257773;61;20396;-64
2023/04/17 05:18:32;0.00;0.00;0.62;0.00;0.00;0.62;2.80;1.93;;;24.00;23.40;;;;;;2260835;61;20393;-64
2023/04/17 05:21:17;0.00;0.00;0.62;0.00;0.00;0.62;2.33;1.90;;;24.00;23.40;;;;;;2252829;61;20417;-64
2023/04/17 05:24:04;0.00;0.00;0.62;0.00;0.00;0.62;2.43;1.80;;;24.00;23.40;;;;;;2260675;61;20362;-64
2023/04/17 05:26:52;0.00;0.00;0.62;0.00;0.00;0.62;1.90;1.70;;;24.00;23.40;;;;;;2258869;61;20374;-64
2023/04/17 05:29:37;0.00;0.00;0.62;0.00;0.00;0.62;2.30;1.80;;;24.00;23.40;;;;;;2260744;61;20930;-65
2023/04/17 05:32:22;0.00;0.00;0.62;0.00;0.00;0.62;2.20;1.70;;;24.00;23.90;;;;;;2260928;61;20429;-64
2023/04/17 05:35:20;0.00;0.00;0.62;0.00;0.00;0.62;2.03;1.83;;;24.00;23.40;;;;;;2261144;61;20370;-64
2023/04/17 05:38:06;0.00;0.00;0.62;0.00;0.00;0.62;2.43;1.80;;;24.00;23.40;;;;;;2260242;61;20382;-64
2023/04/17 05:40:52;0.00;0.00;0.62;0.00;0.00;0.62;1.60;1.40;;;24.00;23.40;;;;;;2260399;61;20837;-64
2023/04/17 05:43:37;0.00;0.00;0.62;0.00;0.00;0.62;3.10;2.30;;;24.00;23.40;;;;;;2254263;61;20374;-64
2023/04/17 05:46:22;0.00;0.00;0.62;0.00;0.00;0.62;2.10;1.90;;;23.90;23.40;;;;;;2257569;61;20806;-64
2023/04/17 05:49:07;0.00;0.00;0.62;0.00;0.00;0.62;2.60;2.27;;;24.00;23.40;;;;;;2257877;61;20588;-64
2023/04/17 05:51:53;0.00;0.00;0.62;0.00;0.00;0.62;2.23;2.03;;;23.90;23.30;;;;;;2255091;61;20385;-64
2023/04/17 05:54:37;0.00;0.00;0.62;0.00;0.00;0.62;2.43;2.00;;;24.00;23.40;;;;;;2255077;61;20413;-64
2023/04/17 05:57:22;0.00;0.00;0.62;0.00;0.00;0.62;2.27;1.90;;;23.90;23.40;;;;;;2255311;61;20374;-64
2023/04/17 06:00:10;0.00;0.00;0.62;0.00;0.00;0.62;2.13;1.93;;;24.00;23.40;;;;;;2254632;61;20361;-64
2023/04/17 06:03:02;0.00;0.00;0.62;0.00;0.00;0.62;2.40;1.73;;;23.90;23.30;;;;;;2258521;61;20405;-64
2023/04/17 06:05:52;0.00;0.00;0.62;0.00;0.00;0.62;2.33;2.13;;;24.00;23.40;;;;;;2255155;61;20366;-65
2023/04/17 06:08:38;0.00;0.00;0.62;0.00;0.00;0.62;2.40;2.20;;;24.00;23.40;;;;;;2254916;61;20435;-64
2023/04/17 06:11:23;0.00;0.00;0.62;0.00;0.00;0.62;2.63;2.03;;;23.90;23.40;;;;;;2255393;61;20362;-63
2023/04/17 06:14:08;0.00;0.00;0.62;0.00;0.00;0.62;2.33;2.13;;;24.00;23.40;;;;;;2255083;61;20936;-64
2023/04/17 06:16:54;0.00;0.00;0.62;0.00;0.00;0.62;2.70;2.10;;;23.90;23.40;;;;;;2255142;61;20366;-64
2023/04/17 06:19:39;0.00;0.00;0.62;0.00;0.00;0.62;2.43;2.10;;;23.90;23.40;;;;;;2257771;61;20416;-64
2023/04/17 06:22:25;0.00;0.00;0.62;0.00;0.00;0.62;2.63;2.27;;;23.90;23.40;;;;;;2254793;61;20365;-64
2023/04/17 06:25:13;0.00;0.00;0.62;0.00;0.00;0.62;3.00;2.70;;;23.90;23.40;;;;;;2260713;61;20373;-64
2023/04/17 06:27:58;0.00;0.00;0.62;0.00;0.00;0.62;2.90;2.53;;;24.00;23.40;;;;;;2258783;61;20624;-68
2023/04/17 06:30:43;0.00;0.00;0.62;0.00;0.00;0.62;2.80;2.40;;;23.90;23.40;;;;;;2254503;61;20362;-64
2023/04/17 06:33:28;0.00;0.00;0.62;0.00;0.00;0.62;3.47;2.70;;;23.90;23.40;;;;;;2257871;61;20486;-64
2023/04/17 06:36:14;0.00;0.00;0.62;0.00;0.00;0.62;2.83;2.47;;;23.90;23.40;;;;;;2254943;61;20425;-64
2023/04/17 06:39:06;0.00;0.00;0.62;0.00;0.00;0.62;3.17;2.87;;;23.90;23.40;;;;;;2254601;61;20454;-67
2023/04/17 06:41:51;0.00;0.00;0.62;0.00;0.00;0.62;4.00;2.90;;;23.90;23.40;;;;;;2260513;61;20881;-64
2023/04/17 06:44:43;0.00;0.00;0.62;0.00;0.00;0.62;3.77;3.37;;;23.90;23.40;;;;;;2250725;61;20455;-64
2023/04/17 06:47:31;0.00;0.00;0.62;0.00;0.00;0.62;3.80;3.10;;;23.90;23.90;;;;;;2251353;61;20374;-64
2023/04/17 06:50:15;0.00;0.00;0.62;0.00;0.00;0.62;3.20;2.90;;;23.90;23.40;;;;;;2250897;61;20359;-64
2023/04/17 06:53:00;0.00;0.00;0.62;0.00;0.00;0.62;3.37;3.07;;;23.90;23.40;;;;;;2251004;61;20378;-64
2023/04/17 06:55:45;0.00;0.00;0.62;0.00;0.00;0.62;4.60;4.20;;;23.90;23.40;;;;;;2254023;61;20431;-64
2023/04/17 06:58:32;0.00;0.00;0.62;0.00;0.00;0.62;4.60;3.60;;;23.90;23.40;;;;;;2267478;40;20943;-65
2023/04/17 07:01:16;0.00;0.00;0.62;0.00;0.00;0.62;4.23;3.87;;;23.90;23.40;;;;;;2270050;61;20413;-64
2023/04/17 07:04:01;0.00;0.00;0.62;0.00;0.00;0.62;5.67;4.47;;;23.90;23.40;;;;;;2269915;61;20367;-64
2023/04/17 07:06:46;0.00;0.00;0.62;0.00;0.00;0.62;5.33;4.50;;;23.90;23.40;;;;;;2266810;61;20469;-65
2023/04/17 07:09:31;0.00;0.00;0.62;0.00;0.00;0.62;5.13;4.30;;;23.90;23.40;;;;;;2270271;61;20432;-64
2023/04/17 07:12:15;0.00;0.00;0.62;0.00;0.00;0.62;5.60;4.97;;;23.90;23.40;;;;;;2270376;61;20397;-64
2023/04/17 07:15:01;0.00;0.00;0.62;0.00;0.00;0.62;5.27;4.77;;;23.90;23.40;;;;;;2267180;61;20382;-64
2023/04/17 07:17:46;0.00;0.00;0.62;0.00;0.00;0.62;5.90;5.30;;;23.90;23.40;;;;;;2270096;61;20387;-64
2023/04/17 07:20:31;0.00;0.00;0.62;0.00;0.00;0.62;6.93;5.90;;;23.90;23.40;;;;;;2270193;61;20366;-64
2023/04/17 07:23:16;0.00;0.00;0.62;0.00;0.00;0.62;7.33;6.40;;;23.90;23.40;;;;;;2270307;61;20367;-63
2023/04/17 07:26:00;0.00;0.00;0.62;0.00;0.00;0.62;7.37;6.63;;;23.90;23.40;;;;;;2270413;61;20465;-64
2023/04/17 07:28:45;0.00;0.00;0.62;0.00;0.00;0.62;7.90;6.83;;;23.90;23.40;;;;;;2270259;61;20398;-64
2023/04/17 07:31:31;0.00;0.00;0.62;0.00;0.00;0.62;7.50;6.80;;;23.90;23.40;;;;;;2270537;61;20371;-64
2023/04/17 07:34:15;0.00;0.00;0.62;0.00;0.00;0.62;7.00;6.13;;;23.90;23.40;;;;;;2270227;61;20377;-64
2023/04/17 07:37:00;0.00;0.00;0.62;0.00;0.00;0.62;8.47;7.57;;;23.90;23.40;;;;;;2270087;61;20528;-64
2023/04/17 07:39:48;0.00;0.00;0.62;0.00;0.00;0.62;7.93;7.13;;;23.90;23.40;;;;;;2269874;61;20417;-68
2023/04/17 07:42:33;0.00;0.00;0.62;0.00;0.00;0.62;7.67;6.97;;;23.90;23.50;;;;;;2270522;61;20355;-64
2023/04/17 07:45:18;0.00;0.00;0.62;0.00;0.00;0.62;7.63;6.47;;;23.90;23.40;;;;;;2270312;61;20413;-65
2023/04/17 07:48:04;0.00;0.00;0.62;0.00;0.00;0.62;7.93;7.13;;;23.90;23.40;;;;;;2267155;61;20378;-64
2023/04/17 07:50:50;0.00;0.00;0.62;0.00;0.00;0.62;7.23;6.53;;;23.90;23.40;;;;;;2269891;61;20379;-64
2023/04/17 07:53:36;0.00;0.00;0.62;0.00;0.00;0.62;7.23;6.33;;;23.90;23.50;;;;;;2270121;61;20462;-64
2023/04/17 07:56:21;0.00;0.00;0.62;0.00;0.00;0.62;7.63;6.90;;;23.90;23.50;;;;;;2270301;61;20358;-64
2023/04/17 07:59:06;0.00;0.00;0.62;0.00;0.00;0.62;8.07;6.87;;;23.90;23.50;;;;;;2268751;61;20387;-64
2023/04/17 08:01:51;0.00;0.00;0.62;0.00;0.00;0.62;7.53;6.77;;;23.90;23.40;;;;;;2266188;61;20348;-64
2023/04/17 08:04:38;0.00;0.00;0.62;0.00;0.00;0.62;7.20;6.50;;;23.90;23.50;;;;;;2266562;61;20446;-64
2023/04/17 08:07:24;0.00;0.00;0.62;0.00;0.00;0.62;6.43;5.83;;;24.00;23.50;;;;;;2265851;61;20923;-64
2023/04/17 08:10:09;0.00;0.00;0.62;0.00;0.00;0.62;7.87;7.10;;;24.00;23.50;;;;;;2265611;61;20414;-64
2023/04/17 08:12:54;0.00;0.00;0.62;0.00;0.00;0.62;7.27;6.17;;;24.00;23.50;;;;;;2262460;61;20480;-64
2023/04/17 08:15:39;0.00;0.00;0.62;0.00;0.00;0.62;8.73;7.83;;;24.00;23.50;;;;;;2263510;61;20360;-64
2023/04/17 08:18:27;0.00;0.00;0.62;0.00;0.00;0.62;7.17;6.43;;;23.90;23.50;;;;;;2355990;39;20741;31
2023/04/17 08:21:14;0.00;0.00;0.62;0.00;0.00;0.62;7.50;6.70;;;24.00;23.50;;;;;;2268437;61;20431;-63
2023/04/17 08:23:59;0.00;0.00;0.62;0.00;0.00;0.62;6.83;6.13;;;24.00;23.50;;;;;;2263585;61;20379;-64
2023/04/17 08:26:43;0.00;0.00;0.62;0.00;0.00;0.62;6.97;6.27;;;24.00;23.50;;;;;;2266996;61;20411;-64
2023/04/17 08:29:28;0.00;0.00;0.62;0.00;0.00;0.62;6.90;6.20;;;23.90;23.50;;;;;;2266557;61;20387;-64
2023/04/17 08:32:13;0.00;0.00;0.62;0.00;0.00;0.62;6.30;5.70;;;23.90;23.50;;;;;;2266782;61;20411;-64
2023/04/17 08:34:58;0.00;0.00;0.62;0.00;0.00;0.62;7.50;6.77;;;23.90;24.00;;;;;;2266172;61;20402;-64
2023/04/17 08:37:45;0.00;0.00;0.62;0.00;0.00;0.62;7.40;6.47;;;24.00;23.50;;;;;;2266806;61;20383;-64
2023/04/17 08:40:30;0.00;0.00;0.62;0.00;0.00;0.62;6.87;6.17;;;24.00;23.50;;;;;;2266857;61;20418;-64
2023/04/17 08:43:17;0.00;0.00;0.62;0.00;0.00;0.62;6.23;5.63;;;24.00;23.60;;;;;;2266492;61;20474;-64
2023/04/17 08:46:02;0.00;0.00;0.62;0.00;0.00;0.62;7.23;6.40;;;24.00;23.60;;;;;;2266880;61;20435;-66
2023/04/17 08:48:47;0.00;0.00;0.62;0.00;0.00;0.62;6.70;6.10;;;24.00;23.60;;;;;;2266909;61;20388;-65
2023/04/17 08:51:34;0.00;0.00;0.62;0.00;0.00;0.62;5.53;5.00;;;24.00;23.50;;;;;;2266311;61;20452;-64
2023/04/17 08:54:20;0.00;0.00;0.62;0.00;0.00;0.62;6.30;5.60;;;24.00;23.60;;;;;;2266207;61;20356;-66
2023/04/17 08:57:06;0.00;0.00;0.62;0.00;0.00;0.62;6.00;5.40;;;24.00;23.60;;;;;;2266722;61;20437;-65
2023/04/17 08:59:50;0.00;0.00;0.62;0.00;0.00;0.62;6.20;5.60;;;24.00;23.60;;;;;;2266709;61;20392;-65
2023/04/17 09:02:53;0.00;0.00;0.62;0.00;0.00;0.62;5.33;4.70;;;24.00;23.60;;;;;;2263534;61;20415;-66
2023/04/17 09:05:40;0.00;0.00;0.62;0.00;0.00;0.62;6.13;5.53;;;24.00;23.60;;;;;;2266389;61;20413;-66
2023/04/17 09:11:36;0.00;0.00;0.62;0.00;0.00;0.62;6.23;5.30;;;24.00;23.60;;;;;;2264435;61;20369;-66
2023/04/17 09:14:30;0.00;0.00;0.62;0.00;0.00;0.62;6.10;5.37;;;24.00;23.60;;;;;;2261772;61;20365;-66
2023/04/17 09:17:17;0.00;0.00;0.62;0.00;0.00;0.62;5.20;4.70;;;24.00;23.60;;;;;;2262473;61;20412;-66
2023/04/17 09:20:06;0.00;0.00;0.62;0.00;0.00;0.62;4.93;4.43;;;24.00;23.60;;;;;;2257559;61;20376;-66
2023/04/17 09:22:59;0.00;0.00;0.62;0.00;0.00;0.62;5.80;5.20;;;24.00;23.60;;;;;;2258373;61;20405;-66
2023/04/17 09:25:45;0.00;0.00;0.62;0.00;0.00;0.62;5.67;4.93;;;24.10;23.70;;;;;;2255330;61;20370;-66
2023/04/17 09:28:34;0.00;0.00;0.62;0.00;0.00;0.62;6.20;5.15;;;24.10;23.70;;;;;;2372660;39;21084;31
2023/04/17 09:31:33;0.00;0.00;0.62;0.00;0.00;0.62;5.20;4.60;;;24.10;23.60;;;;;;2267752;61;20775;-65
2023/04/17 09:34:19;0.00;0.00;0.62;0.00;0.00;0.62;5.53;5.03;;;24.10;23.70;;;;;;2266044;61;20860;-66
2023/04/17 09:37:04;0.00;0.00;0.62;0.00;0.00;0.62;6.07;5.27;;;24.10;23.60;;;;;;2266586;61;20506;-66
2023/04/17 09:39:58;0.00;0.00;0.62;0.00;0.00;0.62;5.20;4.30;;;24.10;23.60;;;;;;2267390;61;20384;-66
2023/04/17 09:42:57;0.00;0.00;0.62;0.00;0.00;0.62;4.87;4.37;;;24.10;23.70;;;;;;2270213;61;20391;-66
2023/04/17 09:45:44;0.00;0.00;0.62;0.00;0.00;0.62;5.23;4.73;;;24.10;23.70;;;;;;2259636;61;20919;-66
2023/04/17 09:48:30;0.00;0.00;0.62;0.00;0.00;0.62;5.83;4.20;;;24.20;23.70;;;;;;2267081;61;20382;-66
2023/04/17 09:51:15;0.00;0.00;0.62;0.00;0.00;0.62;4.83;4.37;;;24.20;23.70;;;;;;2270707;61;20375;-66
2023/04/17 09:54:05;0.00;0.00;0.62;0.00;0.00;0.62;5.43;4.90;;;24.20;23.70;;;;;;2270660;61;20429;-66
2023/04/17 09:56:54;0.00;0.00;0.62;0.00;0.00;0.62;5.33;4.47;;;24.20;23.80;;;;;;2270106;61;20356;-66
2023/04/17 09:59:40;0.00;0.00;0.62;0.00;0.00;0.62;5.30;4.70;;;24.20;23.70;;;;;;2270067;61;20383;-66
2023/04/17 10:02:26;0.00;0.00;0.62;0.00;0.00;0.62;5.47;4.90;;;24.20;23.70;;;;;;2271156;61;20374;-66
2023/04/17 10:05:12;0.00;0.00;0.62;0.00;0.00;0.62;4.93;4.43;;;24.20;23.70;;;;;;2269983;61;20367;-66
2023/04/17 10:07:57;0.00;0.00;0.62;0.00;0.00;0.62;4.67;4.17;;;24.20;23.70;;;;;;2270380;61;20390;-66
2023/04/17 10:10:42;0.00;0.00;0.62;0.00;0.00;0.62;4.90;4.40;;;24.20;23.70;;;;;;2270306;61;20359;-66
2023/04/17 10:13:28;0.00;0.00;0.62;0.00;0.00;0.62;4.60;4.20;;;24.30;23.80;;;;;;2270354;61;20387;-66
2023/04/17 10:16:13;0.00;0.00;0.62;0.00;0.00;0.62;4.47;4.07;;;24.30;23.80;;;;;;2267257;61;20456;-66
2023/04/17 10:19:26;0.00;0.00;0.62;0.00;0.00;0.62;4.40;4.00;;;24.30;23.80;;;;;;2269346;61;20475;-65
2023/04/17 10:22:32;0.00;0.00;0.62;0.00;0.00;0.62;4.70;4.20;;;24.30;23.80;;;;;;2267343;61;20363;-66
2023/04/17 10:25:21;0.00;0.00;0.62;0.00;0.00;0.62;4.30;3.67;;;24.30;23.80;;;;;;2267532;61;20370;-66
2023/04/17 10:28:06;0.00;0.00;0.62;0.00;0.00;0.62;4.13;3.43;;;24.30;23.90;;;;;;2270493;61;20467;-66
2023/04/17 10:30:55;0.00;0.00;0.62;0.00;0.00;0.62;4.60;4.10;;;24.40;23.90;;;;;;2274277;61;20501;-68
2023/04/17 10:33:48;0.00;0.00;0.62;0.00;0.00;0.62;4.10;3.67;;;24.40;23.90;;;;;;2273732;61;20635;-65
2023/04/17 10:36:49;0.00;0.00;0.62;0.00;0.00;0.62;3.80;3.50;;;24.40;23.90;;;;;;2271522;61;20437;-66
2023/04/17 10:39:59;0.00;0.00;0.62;0.00;0.00;0.62;4.33;3.93;;;24.40;23.90;;;;;;2422642;39;20405;-66
2023/04/17 10:43:02;0.00;0.00;0.62;0.00;0.00;0.62;3.60;3.30;;;24.40;23.90;;;;;;2278482;60;20484;-65
2023/04/17 10:45:54;0.00;0.00;0.62;0.00;0.00;0.62;4.10;3.70;;;24.40;23.90;;;;;;2278324;60;20531;-66
2023/04/17 10:48:45;0.00;0.00;0.62;0.00;0.00;0.62;3.87;3.47;;;24.40;23.90;;;;;;2278271;60;20377;-65
2023/04/17 10:51:41;0.00;0.00;0.62;0.00;0.00;0.62;3.43;3.03;;;24.40;23.90;;;;;;2278612;60;20353;-65
2023/04/17 10:54:26;0.00;0.00;0.62;0.00;0.00;0.62;3.77;3.30;;;24.40;23.90;;;;;;2275462;60;20878;-66
2023/04/17 10:57:13;0.00;0.00;0.62;0.00;0.00;0.62;4.20;3.23;;;24.40;23.90;;;;;;2278342;60;20429;-65
2023/04/17 11:00:10;0.00;0.00;0.62;0.00;0.00;0.62;3.57;3.27;;;24.50;23.90;;;;;;2277956;60;20360;-65
2023/04/17 11:02:56;0.00;0.00;0.62;0.00;0.00;0.62;3.80;3.10;;;24.50;23.90;;;;;;2278308;60;20349;-65